Time;durP1;ratioP1;P1;durP2;ratioP2;P2;SDS_P1;SDS_P2;PMS_P1;PMS_P2;Temp;Humidity;BMP_temperature;BMP_pressure;BME280_temperature;BME280_humidity;BME280_pressure;Samples;Min_cycle;Max_cycle;Signal;HPM_P1;HPM_P2
2022/05/09 01:36:04;;;;;;;4.75;2.60;;;13.40;99.90;;;;;;6213276;22;20024;-88
2022/05/09 01:38:49;;;;;;;6.15;2.97;;;13.40;99.90;;;;;;6197225;23;20138;-89
2022/05/09 01:41:15;;;;;;;6.20;3.05;;;13.30;99.90;;;;;;6222558;23;20012;-91
2022/05/09 01:43:45;;;;;;;6.55;2.70;;;13.30;99.90;;;;;;6199739;23;20005;-91
2022/05/09 01:46:16;;;;;;;5.30;2.92;;;13.30;99.90;;;;;;6221884;23;20039;-91
2022/05/09 01:51:27;;;;;;;6.88;2.90;;;13.20;99.90;;;;;;6225849;23;20030;-90
2022/05/09 01:53:52;;;;;;;5.50;2.83;;;13.20;99.90;;;;;;6199380;23;20110;-91
2022/05/09 01:56:24;;;;;;;5.85;3.05;;;13.40;99.90;;;;;;6193932;23;20001;-91
2022/05/09 01:58:49;;;;;;;4.82;2.85;;;13.20;99.90;;;;;;6199461;23;20031;-88
2022/05/09 02:01:19;;;;;;;5.28;2.80;;;13.10;99.90;;;;;;6223568;23;20056;-90
2022/05/09 02:03:46;;;;;;;5.72;2.95;;;13.10;99.90;;;;;;6197759;23;20004;-90
2022/05/09 02:06:12;;;;;;;5.53;3.08;;;13.10;99.90;;;;;;6197613;23;20005;-90
2022/05/09 02:08:39;;;;;;;5.50;2.90;;;13.20;99.90;;;;;;6229926;23;19997;-91
2022/05/09 02:11:04;;;;;;;5.85;3.33;;;13.30;99.90;;;;;;6204943;23;20001;-91
2022/05/09 02:13:30;;;;;;;5.68;3.15;;;12.80;99.90;;;;;;6202310;23;20000;-90
2022/05/09 02:15:56;;;;;;;5.65;3.08;;;13.20;99.90;;;;;;6199550;23;20067;-89
2022/05/09 02:18:22;;;;;;;4.93;3.10;;;13.00;99.90;;;;;;6197081;23;20035;-89
2022/05/09 02:20:48;;;;;;;8.15;2.80;;;13.00;99.90;;;;;;6222918;23;20005;-88
2022/05/09 02:23:14;;;;;;;6.57;3.85;;;13.00;99.90;;;;;;6223128;23;20039;-89
2022/05/09 02:25:42;;;;;;;6.60;3.00;;;13.20;99.90;;;;;;6196525;23;20382;-88
2022/05/09 02:28:09;;;;;;;5.60;3.05;;;13.00;99.90;;;;;;6195094;23;20036;-88
2022/05/09 02:30:36;;;;;;;4.93;2.92;;;12.90;99.90;;;;;;6195474;23;20481;-89
2022/05/09 02:33:03;;;;;;;6.53;3.20;;;13.10;99.90;;;;;;6196126;23;20015;-89
2022/05/09 02:35:28;;;;;;;5.40;2.72;;;12.90;99.90;;;;;;6195693;23;20012;-88
2022/05/09 02:37:54;;;;;;;5.38;2.90;;;13.00;99.90;;;;;;6196181;23;20011;-89
2022/05/09 02:40:21;;;;;;;6.40;3.47;;;12.60;99.90;;;;;;6196844;23;20087;-88
2022/05/09 02:42:46;;;;;;;5.68;3.00;;;12.80;99.90;;;;;;6197532;23;20016;-88
2022/05/09 02:45:13;;;;;;;5.60;2.72;;;13.00;99.90;;;;;;6194971;23;20087;-89
2022/05/09 02:47:40;;;;;;;4.63;2.67;;;13.00;99.90;;;;;;6195069;23;20005;-89
2022/05/09 02:50:08;;;;;;;5.38;3.10;;;12.80;99.90;;;;;;6196869;23;20004;-89
2022/05/09 02:52:34;;;;;;;6.43;3.10;;;12.70;99.90;;;;;;6195840;23;20387;-89
2022/05/09 02:55:07;;;;;;;4.70;2.78;;;12.80;99.90;;;;;;6195278;23;20024;-89
2022/05/09 02:57:34;;;;;;;5.68;3.20;;;12.70;99.90;;;;;;6196053;23;19997;-89
2022/05/09 03:00:00;;;;;;;5.90;3.20;;;12.90;99.90;;;;;;6195860;23;20001;-89
2022/05/09 03:02:27;;;;;;;5.45;2.80;;;12.80;99.90;;;;;;6221922;23;20009;-89
2022/05/09 03:04:53;;;;;;;4.90;2.95;;;12.80;99.90;;;;;;6195031;23;20067;-89
2022/05/09 03:07:19;;;;;;;6.13;3.20;;;12.70;99.90;;;;;;6222880;23;20424;-89
2022/05/09 03:09:48;;;;;;;8.38;3.53;;;12.60;99.90;;;;;;6195263;23;20417;-89
2022/05/09 03:12:14;;;;;;;5.47;3.05;;;12.50;99.90;;;;;;6194895;23;20024;-90
2022/05/09 03:14:40;;;;;;;5.43;3.17;;;12.80;99.90;;;;;;6192822;23;20013;-91
2022/05/09 03:17:08;;;;;;;6.40;3.47;;;12.70;99.90;;;;;;6192796;23;20076;-89
2022/05/09 03:19:34;;;;;;;6.30;3.33;;;12.80;99.90;;;;;;6192713;23;20004;-88
2022/05/09 03:22:00;;;;;;;6.28;3.17;;;12.70;99.90;;;;;;6219209;23;20011;-88
2022/05/09 03:24:26;;;;;;;6.72;3.20;;;12.50;99.90;;;;;;6192969;23;20494;-89
2022/05/09 03:26:52;;;;;;;6.28;2.97;;;12.50;99.90;;;;;;6219485;23;20004;-88
2022/05/09 03:29:19;;;;;;;5.63;3.10;;;12.50;99.90;;;;;;6194791;23;20119;-89
2022/05/09 03:31:47;;;;;;;5.78;3.28;;;12.50;99.90;;;;;;6192887;23;20047;-88
2022/05/09 03:34:15;;;;;;;5.65;3.22;;;12.50;99.90;;;;;;6219841;23;20023;-88
2022/05/09 03:36:43;;;;;;;7.63;3.03;;;12.50;99.90;;;;;;6192452;23;20079;-88
2022/05/09 03:39:09;;;;;;;6.45;3.40;;;12.60;99.90;;;;;;6192520;23;20039;-88
2022/05/09 03:41:36;;;;;;;6.43;3.50;;;12.40;99.90;;;;;;6191840;23;20005;-88
2022/05/09 03:44:01;;;;;;;8.02;3.28;;;12.60;99.90;;;;;;6219622;23;20008;-89
2022/05/09 03:46:27;;;;;;;7.40;3.42;;;12.50;99.90;;;;;;6191344;23;20032;-88
2022/05/09 03:48:53;;;;;;;5.78;3.17;;;12.50;99.90;;;;;;6191313;23;20142;-89
2022/05/09 03:51:19;;;;;;;7.15;3.33;;;12.50;99.90;;;;;;6190121;23;20027;-88
2022/05/09 03:53:45;;;;;;;7.95;3.10;;;12.60;99.90;;;;;;6189703;23;20015;-89
2022/05/09 03:56:12;;;;;;;6.07;3.00;;;12.40;99.90;;;;;;6216442;23;19997;-89
2022/05/09 03:58:39;;;;;;;6.97;3.50;;;12.40;99.90;;;;;;6190557;23;20005;-89
2022/05/09 04:01:05;;;;;;;6.55;3.30;;;12.30;99.90;;;;;;6217473;23;20079;-88
2022/05/09 04:03:32;;;;;;;5.63;3.10;;;12.30;99.90;;;;;;6190961;23;20001;-88
2022/05/09 04:05:58;;;;;;;5.75;3.30;;;12.30;99.90;;;;;;6191048;23;20086;-89
2022/05/09 04:08:24;;;;;;;5.97;3.42;;;12.30;99.90;;;;;;6217540;23;20005;-89
2022/05/09 04:10:54;;;;;;;7.13;3.80;;;12.40;99.90;;;;;;6190408;23;20027;-88
2022/05/09 04:13:21;;;;;;;6.68;3.50;;;12.40;99.90;;;;;;6191489;23;20099;-88
2022/05/09 04:18:39;;;;;;;6.40;3.67;;;12.30;99.90;;;;;;6220125;23;20012;-89
2022/05/09 04:21:06;;;;;;;6.38;3.20;;;12.40;99.90;;;;;;6192636;23;20087;-89
2022/05/09 04:23:33;;;;;;;6.60;3.80;;;12.30;99.90;;;;;;6192051;23;20003;-88
2022/05/09 04:25:59;;;;;;;6.60;3.28;;;12.30;99.90;;;;;;6191865;23;20052;-88
2022/05/09 04:28:30;;;;;;;7.78;3.65;;;12.30;99.90;;;;;;6218952;23;20005;-88
2022/05/09 04:30:56;;;;;;;5.35;3.33;;;12.30;99.90;;;;;;6194062;23;20083;-89
2022/05/09 04:33:22;;;;;;;6.32;3.30;;;12.40;99.90;;;;;;6195441;23;20005;-89
2022/05/09 04:35:54;;;;;;;7.00;3.90;;;12.70;99.90;;;;;;6196821;23;20088;-90
2022/05/09 04:38:23;;;;;;;5.65;3.38;;;12.60;99.90;;;;;;6223966;23;20020;-88
2022/05/09 04:40:54;;;;;;;5.65;3.25;;;12.70;99.90;;;;;;6195605;23;20144;-90
2022/05/09 04:43:24;;;;;;;6.05;3.17;;;12.60;99.90;;;;;;6220433;23;20543;-90
2022/05/09 04:45:50;;;;;;;5.97;3.63;;;12.90;99.90;;;;;;6194019;23;20004;-90
2022/05/09 04:48:22;;;;;;;7.70;3.80;;;12.70;99.90;;;;;;6197072;23;20004;-89
2022/05/09 04:50:48;;;;;;;5.85;3.83;;;12.70;99.90;;;;;;6198978;23;20016;-89
2022/05/09 04:53:17;;;;;;;7.43;3.78;;;12.80;99.90;;;;;;6200067;23;20012;-90
2022/05/09 04:55:43;;;;;;;6.70;3.83;;;12.70;99.90;;;;;;6225398;23;20049;-90
2022/05/09 04:58:14;;;;;;;6.22;3.13;;;12.80;99.90;;;;;;6194905;23;20011;-89
2022/05/09 05:00:41;;;;;;;6.60;3.17;;;13.70;99.90;;;;;;6195571;23;20338;-90
2022/05/09 05:03:07;;;;;;;5.50;2.90;;;13.20;99.90;;;;;;6195969;23;20012;-91
2022/05/09 05:05:34;;;;;;;6.13;3.70;;;13.00;99.90;;;;;;6222262;23;20649;-91
2022/05/09 05:08:02;;;;;;;6.03;3.65;;;13.20;99.90;;;;;;6196956;23;20414;-90
2022/05/09 05:10:32;;;;;;;6.85;3.55;;;13.20;99.90;;;;;;6194869;23;20064;-89
2022/05/09 05:12:58;;;;;;;4.97;3.03;;;13.20;99.90;;;;;;6196335;23;20005;-90
2022/05/09 05:15:26;;;;;;;6.15;3.65;;;13.20;99.90;;;;;;6194887;23;20016;-89
2022/05/09 05:17:51;;;;;;;5.22;2.85;;;13.30;99.90;;;;;;6194265;23;20487;-89
2022/05/09 05:20:17;;;;;;;6.25;3.28;;;13.40;99.90;;;;;;6221599;23;19997;-91
2022/05/09 05:22:48;;;;;;;6.03;3.22;;;13.40;99.90;;;;;;6223973;23;20311;-91
2022/05/09 05:25:26;;;;;;;4.72;2.75;;;13.70;99.90;;;;;;6196359;23;20305;-91
2022/05/09 05:27:53;;;;;;;4.60;2.95;;;13.60;99.90;;;;;;6195728;23;20004;-89
2022/05/09 05:30:20;;;;;;;5.30;2.95;;;13.70;99.90;;;;;;6224978;23;20000;-91
2022/05/09 05:32:47;;;;;;;5.47;3.17;;;13.80;99.90;;;;;;6197143;23;20182;-91
2022/05/09 05:35:17;;;;;;;5.90;3.05;;;13.90;99.90;;;;;;6195311;23;20013;-88
2022/05/09 05:37:42;;;;;;;6.00;2.83;;;14.20;99.90;;;;;;6196868;23;20055;-89
2022/05/09 05:40:09;;;;;;;5.90;3.10;;;14.10;99.90;;;;;;6197659;23;20335;-91
2022/05/09 05:42:37;;;;;;;5.53;3.25;;;14.20;99.90;;;;;;6194031;23;20008;-87
2022/05/09 05:45:03;;;;;;;4.50;2.75;;;14.10;99.90;;;;;;6215615;23;20386;-87
2022/05/09 05:47:29;;;;;;;5.80;3.15;;;14.40;99.90;;;;;;6212536;23;20078;-88
2022/05/09 05:49:55;;;;;;;5.22;3.28;;;14.40;99.90;;;;;;6191685;23;20000;-88
2022/05/09 05:52:20;;;;;;;6.60;2.88;;;14.60;99.90;;;;;;6190550;23;20403;-88
2022/05/09 05:54:46;;;;;;;5.22;3.20;;;14.80;99.90;;;;;;6189150;23;20157;-88
2022/05/09 05:57:16;;;;;;;4.43;2.60;;;14.70;99.90;;;;;;6212021;23;20079;-88
2022/05/09 05:59:57;;;;;;;4.15;2.35;;;14.70;99.90;;;;;;6217803;23;20079;-88
2022/05/09 06:02:24;;;;;;;4.78;2.60;;;14.80;99.90;;;;;;6218004;23;19997;-88
2022/05/09 06:04:50;;;;;;;5.20;2.85;;;14.90;99.90;;;;;;6222625;23;20055;-89
2022/05/09 06:07:17;;;;;;;4.80;2.85;;;15.20;99.90;;;;;;6195410;23;20000;-89
2022/05/09 06:09:46;;;;;;;3.88;2.55;;;15.10;99.90;;;;;;6194948;23;20008;-89
2022/05/09 06:12:15;;;;;;;5.75;3.00;;;15.20;99.90;;;;;;6195355;23;20012;-89
2022/05/09 06:14:41;;;;;;;7.32;3.28;;;15.00;99.90;;;;;;6194943;23;20005;-88
2022/05/09 06:17:08;;;;;;;5.70;3.10;;;15.00;99.90;;;;;;6195671;23;20054;-89
2022/05/09 06:19:37;;;;;;;7.30;3.00;;;15.10;99.90;;;;;;6195416;23;20004;-88
2022/05/09 06:22:04;;;;;;;5.28;3.10;;;15.40;99.90;;;;;;6195252;23;20068;-89
2022/05/09 06:24:30;;;;;;;6.20;2.63;;;15.30;99.90;;;;;;6194579;23;20001;-89
2022/05/09 06:26:56;;;;;;;4.95;2.70;;;15.30;99.90;;;;;;6196176;23;20004;-89
2022/05/09 06:29:23;;;;;;;4.60;2.40;;;15.40;99.90;;;;;;6194267;23;20088;-88
2022/05/09 06:31:49;;;;;;;5.53;2.88;;;15.70;99.90;;;;;;6193247;23;20009;-89
2022/05/09 06:34:15;;;;;;;4.85;2.60;;;15.40;99.90;;;;;;6193711;23;20009;-89
2022/05/09 06:36:44;;;;;;;4.95;2.95;;;15.50;99.90;;;;;;6195972;23;20019;-89
2022/05/09 06:39:13;;;;;;;4.72;2.70;;;15.60;99.90;;;;;;6198403;23;20005;-89
2022/05/09 06:41:39;;;;;;;6.63;2.78;;;15.90;99.90;;;;;;6199357;23;20001;-89
2022/05/09 06:44:04;;;;;;;4.53;2.47;;;15.60;99.90;;;;;;6227318;23;20453;-90
2022/05/09 06:46:33;;;;;;;5.32;2.65;;;15.70;99.90;;;;;;6198845;23;20096;-89
2022/05/09 06:48:59;;;;;;;4.78;2.63;;;15.90;99.90;;;;;;6227367;23;20004;-89
2022/05/09 06:51:25;;;;;;;5.18;2.72;;;15.90;99.90;;;;;;6200257;23;20004;-89
2022/05/09 06:53:51;;;;;;;6.05;2.30;;;16.10;99.90;;;;;;6201076;23;20028;-89
2022/05/09 06:56:17;;;;;;;4.93;2.70;;;16.10;99.90;;;;;;6222857;23;20007;-89
2022/05/09 06:58:42;;;;;;;8.23;3.60;;;16.20;99.90;;;;;;6221832;23;20471;-89
2022/05/09 07:01:26;;;;;;;4.60;2.40;;;16.40;99.90;;;;;;6194799;23;20008;-90
2022/05/09 07:03:52;;;;;;;6.13;2.90;;;16.60;99.90;;;;;;6221258;23;20109;-88
2022/05/09 07:06:17;;;;;;;6.15;3.35;;;16.40;99.90;;;;;;6193868;23;20001;-88
2022/05/09 07:08:44;;;;;;;6.25;3.25;;;16.40;99.90;;;;;;6195052;23;20407;-90
2022/05/09 07:11:12;;;;;;;6.63;2.88;;;16.50;99.90;;;;;;6194084;23;20009;-89
2022/05/09 07:13:39;;;;;;;5.30;2.97;;;16.70;99.90;;;;;;6195661;23;20005;-89
2022/05/09 07:16:05;;;;;;;8.50;2.55;;;16.90;99.90;;;;;;6194681;23;20031;-90
2022/05/09 07:18:33;;;;;;;5.45;3.13;;;17.00;99.90;;;;;;6195074;23;20004;-90
2022/05/09 07:20:58;;;;;;;5.93;3.25;;;17.00;99.90;;;;;;6221601;23;20359;-89
2022/05/09 07:23:25;;;;;;;6.07;3.17;;;17.10;99.90;;;;;;6195063;23;20015;-89
2022/05/09 07:25:51;;;;;;;6.88;3.13;;;17.10;99.90;;;;;;6221579;23;20004;-89
2022/05/09 07:28:19;;;;;;;6.65;3.03;;;17.30;99.90;;;;;;6193431;23;20024;-89
2022/05/09 07:30:46;;;;;;;6.38;2.80;;;17.20;99.90;;;;;;6195006;23;20040;-89
2022/05/09 07:33:16;;;;;;;6.65;3.05;;;17.20;99.90;;;;;;6194869;23;20455;-89
2022/05/09 07:40:31;;;;;;;5.85;2.90;;;17.60;99.90;;;;;;6085398;23;20527;-86
2022/05/09 07:44:08;;;;;;;4.70;2.47;;;17.80;99.90;;;;;;6066710;23;20017;-86
2022/05/09 07:46:41;;;;;;;6.40;2.97;;;18.00;99.90;;;;;;6152390;23;20009;-86
2022/05/09 07:49:51;;;;;;;5.97;3.03;;;18.00;99.90;;;;;;6180102;23;20486;-86
2022/05/09 07:52:35;;;;;;;5.68;2.80;;;18.00;99.90;;;;;;6170852;23;20335;-86
2022/05/09 07:55:23;;;;;;;6.40;2.75;;;18.10;99.90;;;;;;6172960;23;20077;-86
2022/05/09 07:58:10;;;;;;;4.30;2.53;;;18.10;99.90;;;;;;6205819;23;20514;-86
2022/05/09 08:01:02;;;;;;;5.22;2.88;;;18.20;99.90;;;;;;6202168;23;20376;-87
2022/05/09 08:07:18;;;;;;;5.43;3.10;;;18.40;99.90;;;;;;6181805;22;20021;-86
2022/05/09 08:09:59;;;;;;;5.15;2.60;;;18.60;99.90;;;;;;6181613;23;20051;-86
2022/05/09 08:16:17;;;;;;;;;;;;;;;;;;;;;
2022/05/09 08:19:31;;;;;;;;;;;;;;;;;;;;;
2022/05/09 08:22:08;;;;;;;5.78;2.60;;;18.90;99.90;;;;;;6155487;23;20075;-86
2022/05/09 08:25:23;;;;;;;4.47;2.45;;;19.00;99.90;;;;;;6201398;23;20005;-86
2022/05/09 08:28:10;;;;;;;4.50;2.60;;;19.20;99.90;;;;;;6201334;23;19985;-87
2022/05/09 08:31:27;;;;;;;5.45;2.33;;;19.90;99.90;;;;;;6200360;23;20005;-87
2022/05/09 08:34:34;;;;;;;;;;;;;;;;;;;;;
2022/05/09 08:37:14;;;;;;;5.57;2.63;;;19.70;99.90;;;;;;6188969;23;20040;-87
2022/05/09 08:40:11;;;;;;;5.43;2.50;;;19.70;99.90;;;;;;6182647;23;19997;-87
2022/05/09 08:46:56;;;;;;;4.72;2.65;;;20.00;99.90;;;;;;6074463;23;20002;-88
2022/05/09 08:49:46;;;;;;;3.95;2.13;;;20.20;99.90;;;;;;6099229;23;20153;-86
2022/05/09 08:56:04;;;;;;;3.70;2.40;;;20.50;99.90;;;;;;6092591;23;20020;-86
2022/05/09 08:59:11;;;;;;;5.13;2.88;;;20.60;99.90;;;;;;6182623;23;20335;-87
2022/05/09 09:02:05;;;;;;;4.82;2.03;;;20.30;99.90;;;;;;6039547;23;20023;-87
2022/05/09 09:05:01;;;;;;;3.83;2.15;;;20.20;99.90;;;;;;6063623;23;20095;-87
2022/05/09 09:14:48;;;;;;;5.47;2.60;;;20.70;99.90;;;;;;6214741;23;20009;-87
2022/05/09 09:17:43;;;;;;;4.70;2.50;;;20.60;99.90;;;;;;6214064;23;20095;-87
2022/05/09 09:20:57;;;;;;;;;;;;;;;;;;;;;
2022/05/09 09:23:55;;;;;;;3.33;1.80;;;21.00;99.90;;;;;;6214179;23;20083;-87
2022/05/09 09:27:21;;;;;;;3.08;1.75;;;21.40;99.90;;;;;;6186774;23;20538;-87
2022/05/09 09:30:36;;;;;;;3.33;1.98;;;21.30;99.90;;;;;;6177750;23;20005;-87
2022/05/09 09:40:37;;;;;;;6.30;2.55;;;20.50;99.90;;;;;;6122895;23;20013;-88
2022/05/09 09:44:24;;;;;;;;;;;;;;;;;;;;;
2022/05/09 09:47:16;;;;;;;6.03;2.67;;;20.70;99.90;;;;;;6208084;23;20071;-87
2022/05/09 09:50:05;;;;;;;4.68;1.90;;;20.90;99.90;;;;;;6214009;23;20004;-87
2022/05/09 09:53:40;;;;;;;;;;;;;;;;;;;;;
2022/05/09 09:57:08;;;;;;;4.72;2.22;;;21.70;99.90;;;;;;6151781;23;20096;-88
2022/05/09 09:59:43;;;;;;;8.13;2.30;;;21.60;99.90;;;;;;6148594;23;20005;-87
2022/05/09 10:02:51;;;;;;;4.30;2.47;;;21.70;99.90;;;;;;6150726;23;20464;-87
2022/05/09 10:05:41;;;;;;;3.45;2.00;;;21.60;99.90;;;;;;6184843;23;20007;-87
2022/05/09 10:08:50;;;;;;;3.92;2.10;;;21.30;99.90;;;;;;6203464;23;20015;-87
2022/05/09 10:11:32;;;;;;;3.65;1.92;;;21.10;99.90;;;;;;6192721;23;20004;-88
2022/05/09 10:14:36;;;;;;;4.15;2.40;;;21.00;99.90;;;;;;6223070;23;19993;-87
2022/05/09 10:18:11;;;;;;;4.13;1.95;;;21.10;99.90;;;;;;6187008;23;20254;-87
2022/05/09 10:20:53;;;;;;;4.55;2.20;;;20.90;99.90;;;;;;6213954;23;20382;-87
2022/05/09 10:26:54;;;;;;;4.65;2.45;;;20.80;99.90;;;;;;6180963;23;20093;-87
2022/05/09 10:39:34;;;;;;;3.67;2.08;;;22.80;98.60;;;;;;6180070;23;19997;-87
2022/05/09 10:42:37;;;;;;;;;;;;;;;;;;;;;
2022/05/09 10:45:44;;;;;;;3.67;1.65;;;23.00;98.40;;;;;;6180641;23;20107;-87
2022/05/09 10:48:22;;;;;;;4.15;1.85;;;23.30;98.60;;;;;;6145189;23;20009;-87
2022/05/09 10:51:46;;;;;;;;;;;;;;;;;;;;;
2022/05/09 10:54:37;;;;;;;2.90;1.55;;;22.70;97.60;;;;;;6213556;23;20016;-87
2022/05/09 10:57:33;;;;;;;3.63;1.88;;;22.50;98.60;;;;;;6217460;23;20020;-87
2022/05/09 11:00:50;;;;;;;2.58;1.40;;;22.90;98.10;;;;;;6213386;23;19997;-86
2022/05/09 11:03:49;;;;;;;3.28;1.73;;;23.30;97.60;;;;;;6204739;23;20008;-87
2022/05/09 11:13:43;;;;;;;;;;;24.60;95.20;;;;;;6086010;23;20086;-88
2022/05/09 11:16:33;;;;;;;3.13;1.58;;;25.10;94.50;;;;;;6185595;23;19903;-88
2022/05/09 11:19:56;;;;;;;3.72;1.70;;;25.30;94.40;;;;;;6207970;23;20431;-88
2022/05/09 11:22:46;;;;;;;3.03;1.60;;;25.30;93.80;;;;;;6182191;23;20008;-85
2022/05/09 11:25:55;;;;;;;2.28;1.20;;;25.50;93.30;;;;;;6184897;23;20009;-87
2022/05/09 11:32:29;;;;;;;2.83;1.63;;;25.90;91.70;;;;;;6212032;23;20035;-88
2022/05/09 11:35:36;;;;;;;3.35;2.10;;;26.10;90.90;;;;;;6214259;23;20012;-87
2022/05/09 11:38:48;;;;;;;3.97;1.90;;;26.10;91.50;;;;;;6187427;23;20112;-87
2022/05/09 11:41:29;;;;;;;2.08;1.33;;;26.20;89.40;;;;;;6212043;23;20004;-87
2022/05/09 11:44:41;;;;;;;2.45;1.50;;;26.50;90.30;;;;;;6185572;23;20431;-87
2022/05/09 11:47:59;;;;;;;2.50;1.48;;;26.20;90.20;;;;;;6174211;23;20088;-87
2022/05/09 11:51:01;;;;;;;2.65;1.50;;;26.60;88.80;;;;;;6184489;23;20008;-87
2022/05/09 11:54:31;;;;;;;2.63;1.40;;;26.90;87.10;;;;;;6185469;23;20020;-87
2022/05/09 12:00:48;;;;;;;2.15;1.23;;;26.80;86.70;;;;;;6211988;23;20008;-88
2022/05/09 12:03:45;;;;;;;4.32;1.77;;;26.40;84.80;;;;;;6184475;23;20027;-87
2022/05/09 12:06:36;;;;;;;2.58;1.23;;;26.10;84.60;;;;;;6169856;23;20001;-88
2022/05/09 12:10:02;;;;;;;2.60;1.48;;;26.00;86.30;;;;;;6185728;23;20324;-87
2022/05/09 12:12:55;;;;;;;2.50;1.35;;;25.70;86.50;;;;;;6123585;23;20002;-87
2022/05/09 12:15:47;;;;;;;2.28;1.42;;;25.70;86.80;;;;;;6185665;23;20019;-87
2022/05/09 12:18:45;;;;;;;3.60;1.50;;;25.90;86.50;;;;;;6212770;23;20459;-87
2022/05/09 12:21:41;;;;;;;3.78;1.83;;;26.30;86.40;;;;;;6212970;23;19996;-88
2022/05/09 12:24:17;;;;;;;2.88;1.50;;;26.90;82.70;;;;;;6181637;23;20131;-85
2022/05/09 12:26:49;;;;;;;2.72;1.48;;;26.70;80.40;;;;;;6186278;23;20031;-85
2022/05/09 12:29:16;;;;;;;2.63;1.50;;;27.70;80.70;;;;;;6184473;23;20084;-86
2022/05/09 12:31:47;;;;;;;2.65;1.52;;;28.00;78.10;;;;;;6184633;23;20521;-86
2022/05/09 12:34:17;;;;;;;2.30;1.30;;;27.90;78.20;;;;;;6212971;23;20044;-86
2022/05/09 12:36:46;;;;;;;2.72;1.48;;;27.70;77.60;;;;;;6184945;23;20008;-85
2022/05/09 12:39:17;;;;;;;2.08;1.10;;;27.20;79.00;;;;;;6185465;23;20003;-85
2022/05/09 12:41:48;;;;;;;4.13;1.73;;;26.40;78.90;;;;;;6185056;23;20016;-85
2022/05/09 12:44:17;;;;;;;2.83;1.27;;;25.90;81.00;;;;;;6212448;23;20001;-85
2022/05/09 12:46:51;;;;;;;2.22;1.20;;;25.80;79.90;;;;;;6179366;23;20618;-86
2022/05/09 12:49:21;;;;;;;2.10;1.15;;;25.70;81.30;;;;;;6181217;23;20316;-85
2022/05/09 12:51:57;;;;;;;2.90;1.40;;;26.30;79.10;;;;;;6180397;23;20004;-84
2022/05/09 12:54:26;;;;;;;1.95;1.20;;;26.90;78.60;;;;;;6180137;23;20351;-84
2022/05/09 12:56:56;;;;;;;2.33;1.20;;;26.70;77.90;;;;;;6181668;23;20023;-84
2022/05/09 12:59:22;;;;;;;4.55;1.25;;;26.10;77.60;;;;;;6180765;23;20008;-85
2022/05/09 13:01:55;;;;;;;2.55;1.30;;;25.90;79.00;;;;;;6181236;23;20001;-85
2022/05/09 13:04:36;;;;;;;3.85;1.70;;;25.60;80.60;;;;;;6180623;23;20112;-85
2022/05/09 13:07:07;;;;;;;;;;;25.80;78.30;;;;;;6180841;23;20013;-85
2022/05/09 13:09:35;;;;;;;2.27;1.20;;;25.20;78.40;;;;;;6188039;23;19911;-85
2022/05/09 13:12:06;;;;;;;3.00;1.27;;;25.10;78.30;;;;;;6189790;23;20068;-85
2022/05/09 13:14:41;;;;;;;3.15;1.38;;;24.80;80.30;;;;;;6188955;23;20001;-85
2022/05/09 13:17:38;;;;;;;3.53;1.23;;;24.40;81.30;;;;;;6189285;23;20008;-85
2022/05/09 13:20:09;;;;;;;2.15;1.15;;;24.20;82.20;;;;;;6219745;23;20447;-86
2022/05/09 13:22:49;;;;;;;2.00;1.30;;;24.00;82.90;;;;;;6184848;23;20009;-85
2022/05/09 13:25:25;;;;;;;2.65;1.30;;;23.90;83.50;;;;;;6182872;23;20005;-85
2022/05/09 13:27:55;;;;;;;3.67;1.40;;;24.20;81.80;;;;;;6182440;23;20032;-85
2022/05/09 13:30:20;;;;;;;3.05;1.63;;;24.90;81.20;;;;;;6181619;23;20005;-85
2022/05/09 13:32:53;;;;;;;2.33;1.23;;;25.70;80.30;;;;;;6181020;23;20009;-85
2022/05/09 13:35:27;;;;;;;2.83;1.20;;;26.40;78.70;;;;;;6177776;23;20001;-89
2022/05/09 13:37:55;;;;;;;1.92;1.20;;;27.30;75.90;;;;;;6190921;23;20005;-88
2022/05/09 13:40:22;;;;;;;3.28;1.20;;;27.60;73.60;;;;;;6189916;23;20510;-88
2022/05/09 13:42:53;;;;;;;3.33;1.90;;;27.90;73.70;;;;;;6194456;23;20460;-88
2022/05/09 13:45:28;;;;;;;2.28;1.30;;;27.20;76.00;;;;;;6191359;23;20013;-88
2022/05/09 13:47:55;;;;;;;3.92;1.55;;;27.10;74.60;;;;;;6191986;23;20001;-89
2022/05/09 13:50:28;;;;;;;2.88;1.50;;;26.60;77.10;;;;;;6194314;23;19993;-89
2022/05/09 13:52:53;;;;;;;3.20;1.50;;;26.00;77.80;;;;;;6192310;23;20037;-88
2022/05/09 13:55:32;;;;;;;2.63;1.50;;;25.70;77.60;;;;;;6194584;23;20008;-89
2022/05/09 13:58:00;;;;;;;3.20;1.50;;;25.30;79.30;;;;;;6191817;23;20439;-88
2022/05/09 14:00:47;;;;;;;3.92;1.67;;;25.00;79.30;;;;;;6191135;23;20032;-88
2022/05/09 14:03:28;;;;;;;4.00;1.75;;;24.50;79.40;;;;;;6189073;23;20005;-89
2022/05/09 14:05:57;;;;;;;2.50;1.48;;;24.20;79.90;;;;;;6192113;23;20296;-88
2022/05/09 14:08:25;;;;;;;2.30;1.23;;;24.20;81.40;;;;;;6187243;23;20012;-89
2022/05/09 14:11:10;;;;;;;2.97;1.50;;;24.10;81.20;;;;;;6191960;23;20087;-88
2022/05/09 14:13:46;;;;;;;2.90;1.42;;;23.90;80.50;;;;;;6190908;23;20008;-88
2022/05/09 14:16:32;;;;;;;3.53;1.33;;;23.90;81.60;;;;;;6191045;23;20032;-88
2022/05/09 14:19:06;;;;;;;4.20;1.40;;;24.00;80.20;;;;;;6193465;23;20001;-88
2022/05/09 14:21:51;;;;;;;2.95;1.67;;;24.50;82.00;;;;;;6192360;23;20512;-88
2022/05/09 14:24:28;;;;;;;3.17;1.30;;;25.50;79.80;;;;;;6194328;23;20009;-89
2022/05/09 14:29:58;;;;;;;2.35;1.33;;;27.10;74.80;;;;;;6191108;23;20035;-89
2022/05/09 14:32:48;;;;;;;2.33;1.50;;;27.60;72.90;;;;;;6190392;23;20148;-88
2022/05/09 14:35:37;;;;;;;3.05;1.40;;;28.30;72.80;;;;;;6190227;23;20057;-89
2022/05/09 14:38:26;;;;;;;2.70;0.90;;;28.60;70.50;;;;;;6199570;23;20005;-89
2022/05/09 14:41:05;;;;;;;3.53;1.40;;;29.20;71.50;;;;;;6202830;23;20035;-89
2022/05/09 14:43:31;;;;;;;3.38;1.10;;;29.20;69.40;;;;;;6220617;23;20439;-89
2022/05/09 14:46:05;;;;;;;2.75;1.23;;;29.30;68.00;;;;;;6219495;23;20001;-90
2022/05/09 14:48:36;;;;;;;3.17;1.23;;;28.80;68.10;;;;;;6193817;23;20630;-90
2022/05/09 14:51:07;;;;;;;2.38;1.40;;;28.90;68.80;;;;;;6195108;23;20031;-90
2022/05/09 14:53:52;;;;;;;2.83;1.40;;;29.10;69.70;;;;;;6196237;23;20001;-89
2022/05/09 14:59:19;;;;;;;2.47;1.30;;;29.30;68.60;;;;;;6226564;23;20073;-88
2022/05/09 15:02:22;;;;;;;3.30;1.55;;;29.80;69.00;;;;;;6194690;23;20008;-89
2022/05/09 15:04:48;;;;;;;1.95;1.10;;;30.00;68.30;;;;;;6226607;23;20004;-89
2022/05/09 15:07:13;;;;;;;6.28;1.60;;;29.80;66.90;;;;;;6202718;23;20011;-89
2022/05/09 15:09:47;;;;;;;2.60;1.30;;;29.90;66.80;;;;;;6199001;23;20069;-90
2022/05/09 15:12:25;;;;;;;2.33;1.20;;;29.70;65.70;;;;;;6199417;23;20095;-90
2022/05/09 15:15:00;;;;;;;2.97;1.40;;;29.40;67.20;;;;;;6198881;23;20015;-91
2022/05/09 15:17:28;;;;;;;4.88;1.33;;;29.40;65.50;;;;;;6202470;23;20450;-89
2022/05/09 15:19:59;;;;;;;2.67;1.40;;;29.30;65.60;;;;;;6201196;23;20100;-90
2022/05/09 15:22:28;;;;;;;;;;;29.30;65.30;;;;;;6199824;23;20011;-87
2022/05/09 15:24:54;;;;;;;4.00;1.10;;;29.50;64.60;;;;;;6196849;23;19924;-89
2022/05/09 15:27:23;;;;;;;2.40;1.35;;;29.30;64.60;;;;;;6195872;23;19997;-87
2022/05/09 15:29:57;;;;;;;2.42;1.25;;;29.20;64.60;;;;;;6196227;23;20176;-91
2022/05/09 15:32:23;;;;;;;2.15;1.20;;;29.40;64.80;;;;;;6226341;23;19997;-90
2022/05/09 15:34:49;;;;;;;2.13;1.10;;;29.50;64.60;;;;;;6198443;23;20005;-90
2022/05/09 15:37:15;;;;;;;2.65;1.33;;;29.40;63.80;;;;;;6194975;23;20013;-89
2022/05/09 15:39:41;;;;;;;2.17;1.08;;;29.20;64.90;;;;;;6195929;23;20050;-90
2022/05/09 15:42:29;;;;;;;1.95;1.08;;;29.10;65.30;;;;;;6221085;23;20000;-89
2022/05/09 15:45:05;;;;;;;2.65;1.17;;;28.60;67.30;;;;;;6195578;23;20008;-90
2022/05/09 15:47:41;;;;;;;1.90;1.08;;;28.30;65.90;;;;;;6196015;23;20005;-89
2022/05/09 15:50:11;;;;;;;2.17;1.10;;;28.10;66.60;;;;;;6221491;23;20119;-89
2022/05/09 15:52:43;;;;;;;2.50;1.30;;;27.70;66.50;;;;;;6191986;23;20015;-90
2022/05/09 15:55:09;;;;;;;2.38;1.20;;;27.10;67.00;;;;;;6220994;23;20260;-89
2022/05/09 15:57:39;;;;;;;2.70;1.10;;;26.60;67.50;;;;;;6221643;23;20001;-90
2022/05/09 16:00:11;;;;;;;3.80;1.20;;;26.00;68.70;;;;;;6195654;23;20504;-90
2022/05/09 16:02:40;;;;;;;2.65;1.33;;;25.50;69.50;;;;;;6195811;23;20088;-89
2022/05/09 16:05:11;;;;;;;2.10;1.00;;;25.30;70.20;;;;;;6223752;23;20068;-89
2022/05/09 16:13:14;;;;;;;2.92;1.45;;;24.50;71.90;;;;;;6220171;23;20016;-89
2022/05/09 16:15:40;;;;;;;3.58;1.67;;;24.20;71.70;;;;;;6221913;23;20009;-89
2022/05/09 16:18:07;;;;;;;2.50;1.25;;;24.00;72.20;;;;;;6197690;23;20039;-90
2022/05/09 16:20:33;;;;;;;2.90;1.50;;;24.00;72.30;;;;;;6224118;23;20009;-90
2022/05/09 16:23:06;;;;;;;2.63;1.30;;;23.80;73.00;;;;;;6220177;23;20001;-90
2022/05/09 16:25:32;;;;;;;3.00;1.45;;;23.70;72.80;;;;;;6193453;23;20462;-89
2022/05/09 16:28:00;;;;;;;2.38;1.38;;;23.60;73.20;;;;;;6191228;23;20043;-90
2022/05/09 16:30:31;;;;;;;3.60;1.80;;;23.50;73.60;;;;;;6219254;23;20001;-89
2022/05/09 16:33:05;;;;;;;2.38;1.27;;;23.40;73.10;;;;;;6224003;23;20427;-90
2022/05/09 16:35:32;;;;;;;2.40;1.30;;;23.30;73.80;;;;;;6223250;23;20122;-90
2022/05/09 16:38:01;;;;;;;2.88;1.40;;;23.40;74.00;;;;;;6222906;23;20001;-90
2022/05/09 16:40:36;;;;;;;2.00;1.15;;;23.40;74.00;;;;;;6224246;23;20004;-90